createdAt,value
2023-04-27T00:00:39.537Z,535.00
2023-04-27T00:01:39.617Z,534.00
2023-04-27T00:02:39.800Z,534.00
2023-04-27T00:03:39.938Z,537.00
2023-04-27T00:04:39.956Z,535.00
2023-04-27T00:05:40.078Z,535.00
2023-04-27T00:06:39.861Z,532.00
2023-04-27T00:07:39.933Z,532.00
2023-04-27T00:08:40.004Z,532.00
2023-04-27T00:09:40.070Z,531.00
2023-04-27T00:10:40.105Z,532.00
2023-04-27T00:11:40.157Z,531.00
2023-04-27T00:12:40.222Z,534.00
2023-04-27T00:13:40.304Z,532.00
2023-04-27T00:14:40.389Z,531.00
2023-04-27T00:15:40.390Z,530.00
2023-04-27T00:16:40.527Z,530.00
2023-04-27T00:17:40.567Z,531.00
2023-04-27T00:18:40.597Z,531.00
2023-04-27T00:19:40.647Z,532.00
2023-04-27T00:20:40.705Z,532.00
2023-04-27T00:21:40.745Z,531.00
2023-04-27T00:22:40.811Z,530.00
2023-04-27T00:23:40.893Z,528.00
2023-04-27T00:24:40.929Z,525.00
2023-04-27T00:25:40.998Z,526.00
2023-04-27T00:26:41.064Z,527.00
2023-04-27T00:27:41.120Z,528.00
2023-04-27T00:28:41.193Z,527.00
2023-04-27T00:29:41.235Z,526.00
2023-04-27T00:30:41.287Z,530.00
2023-04-27T00:31:41.365Z,531.00
2023-04-27T00:32:41.566Z,532.00
2023-04-27T00:33:41.463Z,534.00
2023-04-27T00:34:41.513Z,535.00
2023-04-27T00:35:41.593Z,533.00
2023-04-27T00:36:41.632Z,529.00
2023-04-27T00:37:41.697Z,530.00
2023-04-27T00:38:41.757Z,531.00
2023-04-27T00:39:41.815Z,530.00
2023-04-27T00:40:41.910Z,531.00
2023-04-27T00:41:41.973Z,531.00
2023-04-27T00:42:41.978Z,532.00
2023-04-27T00:43:42.044Z,531.00
2023-04-27T00:44:42.106Z,530.00
2023-04-27T00:45:42.203Z,530.00
2023-04-27T00:46:42.232Z,532.00
2023-04-27T00:47:42.354Z,533.00
2023-04-27T00:48:42.385Z,533.00
2023-04-27T00:49:42.352Z,531.00
2023-04-27T00:50:42.382Z,531.00
2023-04-27T00:51:42.395Z,531.00
2023-04-27T00:52:42.453Z,531.00
2023-04-27T00:53:42.513Z,528.00
2023-04-27T00:54:42.570Z,528.00
2023-04-27T00:55:42.643Z,530.00
2023-04-27T00:56:42.691Z,531.00
2023-04-27T00:57:42.747Z,532.00
2023-04-27T00:58:42.787Z,532.00
2023-04-27T00:59:42.851Z,532.00
2023-04-27T01:00:42.943Z,531.00
2023-04-27T01:01:42.997Z,530.00
2023-04-27T01:02:43.135Z,528.00
2023-04-27T01:03:43.206Z,525.00
2023-04-27T01:04:43.163Z,526.00
2023-04-27T01:05:43.243Z,529.00
2023-04-27T01:06:43.246Z,532.00
2023-04-27T01:07:43.334Z,532.00
2023-04-27T01:08:43.364Z,532.00
2023-04-27T01:09:43.426Z,533.00
2023-04-27T01:10:43.486Z,536.00
2023-04-27T01:11:43.559Z,536.00
2023-04-27T01:12:43.614Z,535.00
2023-04-27T01:13:43.683Z,536.00
2023-04-27T01:14:43.762Z,536.00
2023-04-27T01:15:43.795Z,536.00
2023-04-27T01:16:43.876Z,536.00
2023-04-27T01:17:43.928Z,534.00
2023-04-27T01:18:43.966Z,534.00
2023-04-27T01:19:44.010Z,534.00
2023-04-27T01:20:44.076Z,531.00
2023-04-27T01:21:44.170Z,524.00
2023-04-27T01:22:44.209Z,521.00
2023-04-27T01:23:44.278Z,522.00
2023-04-27T01:24:44.318Z,520.00
2023-04-27T01:25:44.400Z,519.00
2023-04-27T01:26:44.478Z,520.00
2023-04-27T01:27:44.516Z,517.00
2023-04-27T01:28:44.569Z,520.00
2023-04-27T01:29:44.627Z,520.00
2023-04-27T01:30:44.711Z,516.00
2023-04-27T01:31:44.825Z,514.00
2023-04-27T01:32:44.892Z,515.00
2023-04-27T01:33:44.902Z,515.00
2023-04-27T01:34:44.964Z,515.00
2023-04-27T01:35:44.987Z,515.00
2023-04-27T01:36:45.067Z,518.00
2023-04-27T01:37:45.169Z,519.00
2023-04-27T01:38:45.181Z,519.00
2023-04-27T01:39:45.298Z,522.00
2023-04-27T01:40:45.287Z,522.00
2023-04-27T01:41:45.378Z,522.00
2023-04-27T01:42:45.393Z,523.00
2023-04-27T01:43:45.457Z,525.00
2023-04-27T01:44:45.550Z,526.00
2023-04-27T01:45:45.610Z,526.00
2023-04-27T01:46:45.702Z,524.00
2023-04-27T01:47:45.744Z,524.00
2023-04-27T01:48:45.780Z,523.00
2023-04-27T01:49:45.806Z,520.00
2023-04-27T01:50:45.857Z,517.00
2023-04-27T01:51:45.904Z,518.00
2023-04-27T01:52:45.971Z,514.00
2023-04-27T01:53:46.031Z,516.00
2023-04-27T01:54:46.127Z,517.00
2023-04-27T01:55:46.288Z,519.00
2023-04-27T01:56:46.194Z,520.00
2023-04-27T01:57:46.253Z,519.00
2023-04-27T01:58:46.365Z,522.00
2023-04-27T01:59:46.374Z,522.00
2023-04-27T02:00:46.429Z,522.00
2023-04-27T02:01:46.541Z,522.00
2023-04-27T02:02:46.632Z,524.00
2023-04-27T02:03:46.765Z,525.00
2023-04-27T02:04:46.759Z,528.00
2023-04-27T02:05:46.720Z,527.00
2023-04-27T02:06:46.818Z,527.00
2023-04-27T02:07:46.854Z,524.00
2023-04-27T02:08:46.939Z,523.00
2023-04-27T02:09:46.992Z,520.00
2023-04-27T02:10:47.040Z,517.00
2023-04-27T02:11:47.104Z,515.00
2023-04-27T02:12:47.158Z,516.00
2023-04-27T02:13:47.204Z,517.00
2023-04-27T02:14:47.307Z,519.00
2023-04-27T02:15:47.403Z,522.00
2023-04-27T02:16:47.389Z,523.00
2023-04-27T02:17:47.523Z,521.00
2023-04-27T02:18:47.480Z,522.00
2023-04-27T02:19:47.512Z,523.00
2023-04-27T02:20:47.514Z,526.00
2023-04-27T02:21:47.518Z,526.00
2023-04-27T02:22:47.551Z,522.00
2023-04-27T02:23:47.622Z,518.00
2023-04-27T02:24:47.729Z,518.00
2023-04-27T02:25:47.764Z,521.00
2023-04-27T02:26:47.801Z,522.00
2023-04-27T02:27:47.881Z,522.00
2023-04-27T02:28:47.915Z,520.00
2023-04-27T02:29:48.005Z,519.00
2023-04-27T02:30:48.016Z,519.00
2023-04-27T02:31:48.125Z,520.00
2023-04-27T02:32:48.193Z,520.00
2023-04-27T02:33:48.195Z,521.00
2023-04-27T02:34:48.284Z,519.00
2023-04-27T02:35:48.329Z,519.00
2023-04-27T02:36:48.403Z,516.00
2023-04-27T02:37:48.430Z,517.00
2023-04-27T02:38:48.472Z,517.00
2023-04-27T02:39:48.534Z,519.00
2023-04-27T02:40:48.538Z,518.00
2023-04-27T02:41:48.598Z,517.00
2023-04-27T02:42:48.643Z,517.00
2023-04-27T02:43:48.686Z,516.00
2023-04-27T02:44:48.794Z,516.00
2023-04-27T02:45:48.819Z,514.00
2023-04-27T02:46:48.902Z,514.00
2023-04-27T02:47:48.974Z,511.00
2023-04-27T02:48:49.772Z,510.00
2023-04-27T02:49:49.062Z,508.00
2023-04-27T02:50:49.073Z,511.00
2023-04-27T02:51:49.126Z,508.00
2023-04-27T02:52:49.181Z,508.00
2023-04-27T02:53:49.224Z,507.00
2023-04-27T02:54:49.328Z,506.00
2023-04-27T02:55:49.348Z,504.00
2023-04-27T02:56:49.410Z,506.00
2023-04-27T02:57:49.456Z,507.00
2023-04-27T02:58:49.505Z,506.00
2023-04-27T02:59:49.581Z,506.00
2023-04-27T03:00:49.655Z,507.00
2023-04-27T03:01:49.639Z,508.00
2023-04-27T03:02:49.759Z,507.00
2023-04-27T03:03:49.934Z,506.00
2023-04-27T03:04:49.832Z,503.00
2023-04-27T03:05:49.765Z,505.00
2023-04-27T03:06:49.797Z,507.00
2023-04-27T03:07:49.882Z,508.00
2023-04-27T03:08:49.925Z,509.00
2023-04-27T03:09:50.001Z,509.00
2023-04-27T03:10:50.007Z,509.00
2023-04-27T03:11:50.069Z,510.00
2023-04-27T03:12:50.116Z,508.00
2023-04-27T03:13:50.169Z,506.00
2023-04-27T03:14:50.276Z,505.00
2023-04-27T03:15:50.265Z,503.00
2023-04-27T03:16:50.442Z,501.00
2023-04-27T03:17:50.427Z,503.00
2023-04-27T03:18:50.439Z,502.00
2023-04-27T03:19:50.540Z,505.00
2023-04-27T03:20:50.565Z,505.00
2023-04-27T03:21:50.614Z,506.00
2023-04-27T03:22:50.704Z,505.00
2023-04-27T03:23:50.749Z,506.00
2023-04-27T03:24:50.820Z,507.00
2023-04-27T03:25:50.850Z,506.00
2023-04-27T03:26:50.846Z,508.00
2023-04-27T03:27:50.929Z,510.00
2023-04-27T03:28:50.934Z,510.00
2023-04-27T03:29:50.974Z,508.00
2023-04-27T03:30:51.039Z,506.00
2023-04-27T03:31:51.101Z,506.00
2023-04-27T03:32:51.230Z,504.00
2023-04-27T03:33:51.154Z,505.00
2023-04-27T03:34:51.223Z,505.00
2023-04-27T03:35:51.218Z,505.00
2023-04-27T03:36:51.298Z,505.00
2023-04-27T03:37:51.330Z,504.00
2023-04-27T03:38:51.349Z,503.00
2023-04-27T03:39:51.431Z,503.00
2023-04-27T03:40:51.575Z,503.00
2023-04-27T03:41:51.465Z,502.00
2023-04-27T03:42:51.536Z,501.00
2023-04-27T03:43:51.578Z,502.00
2023-04-27T03:44:51.641Z,501.00
2023-04-27T03:45:51.690Z,503.00
2023-04-27T03:46:51.670Z,504.00
2023-04-27T03:47:51.785Z,504.00
2023-04-27T03:48:53.340Z,506.00
2023-04-27T03:49:51.769Z,506.00
2023-04-27T03:50:51.811Z,507.00
2023-04-27T03:51:51.807Z,510.00
2023-04-27T03:52:51.862Z,508.00
2023-04-27T03:53:51.891Z,507.00
2023-04-27T03:54:51.924Z,506.00
2023-04-27T03:55:51.931Z,505.00
2023-04-27T03:56:51.935Z,501.00
2023-04-27T03:57:51.962Z,501.00
2023-04-27T03:58:51.988Z,499.00
2023-04-27T03:59:52.030Z,498.00
2023-04-27T04:00:52.007Z,498.00
2023-04-27T04:01:52.042Z,497.00
2023-04-27T04:02:52.275Z,496.00
2023-04-27T04:03:52.252Z,495.00
2023-04-27T04:04:52.233Z,496.00
2023-04-27T04:05:52.185Z,494.00
2023-04-27T04:06:52.212Z,495.00
2023-04-27T04:07:52.258Z,494.00
2023-04-27T04:08:52.310Z,494.00
2023-04-27T04:09:52.329Z,495.00
2023-04-27T04:10:52.354Z,493.00
2023-04-27T04:11:52.452Z,495.00
2023-04-27T04:12:52.431Z,495.00
2023-04-27T04:13:52.468Z,492.00
2023-04-27T04:14:52.469Z,491.00
2023-04-27T04:15:52.540Z,493.00
2023-04-27T04:16:52.562Z,492.00
2023-04-27T04:17:52.615Z,492.00
2023-04-27T04:18:52.574Z,492.00
2023-04-27T04:19:52.606Z,493.00
2023-04-27T04:20:52.639Z,495.00
2023-04-27T04:21:52.657Z,495.00
2023-04-27T04:22:52.712Z,495.00
2023-04-27T04:23:52.710Z,496.00
2023-04-27T04:24:52.717Z,495.00
2023-04-27T04:25:52.732Z,496.00
2023-04-27T04:26:52.762Z,494.00
2023-04-27T04:27:52.790Z,493.00
2023-04-27T04:28:52.828Z,490.00
2023-04-27T04:29:52.846Z,491.00
2023-04-27T04:30:52.977Z,492.00
2023-04-27T04:31:52.948Z,492.00
2023-04-27T04:32:53.055Z,492.00
2023-04-27T04:33:52.923Z,492.00
2023-04-27T04:34:52.946Z,493.00
2023-04-27T04:35:52.965Z,494.00
2023-04-27T04:36:52.986Z,492.00
2023-04-27T04:37:52.995Z,492.00
2023-04-27T04:38:53.016Z,493.00
2023-04-27T04:39:53.033Z,493.00
2023-04-27T04:40:53.062Z,494.00
2023-04-27T04:41:53.118Z,497.00
2023-04-27T04:42:53.102Z,499.00
2023-04-27T04:43:53.101Z,499.00
2023-04-27T04:44:53.119Z,498.00
2023-04-27T04:45:53.103Z,497.00
2023-04-27T04:46:53.171Z,497.00
2023-04-27T04:47:53.124Z,497.00
2023-04-27T04:48:54.630Z,495.00
2023-04-27T04:49:53.118Z,495.00
2023-04-27T04:50:53.171Z,497.00
2023-04-27T04:51:53.174Z,496.00
2023-04-27T04:52:53.210Z,495.00
2023-04-27T04:53:53.200Z,496.00
2023-04-27T04:54:53.234Z,494.00
2023-04-27T04:55:53.219Z,493.00
2023-04-27T04:56:53.244Z,492.00
2023-04-27T04:57:53.260Z,491.00
2023-04-27T04:58:53.220Z,489.00
2023-04-27T04:59:53.243Z,490.00
2023-04-27T05:00:53.230Z,492.00
2023-04-27T05:01:53.326Z,495.00
2023-04-27T05:02:53.425Z,495.00
2023-04-27T05:03:53.482Z,494.00
2023-04-27T05:04:53.413Z,493.00
2023-04-27T05:05:53.346Z,491.00
2023-04-27T05:06:53.369Z,492.00
2023-04-27T05:07:53.389Z,495.00
2023-04-27T05:08:53.422Z,494.00
2023-04-27T05:09:53.438Z,493.00
2023-04-27T05:10:53.451Z,493.00
2023-04-27T05:11:53.450Z,492.00
2023-04-27T05:12:53.524Z,493.00
2023-04-27T05:13:53.482Z,493.00
2023-04-27T05:14:53.475Z,491.00
2023-04-27T05:15:53.508Z,491.00
2023-04-27T05:16:53.516Z,489.00
2023-04-27T05:17:53.533Z,486.00
2023-04-27T05:18:53.496Z,487.00
2023-04-27T05:19:53.830Z,487.00
2023-04-27T05:20:53.532Z,487.00
2023-04-27T05:21:53.567Z,487.00
2023-04-27T05:22:53.555Z,485.00
2023-04-27T05:23:53.699Z,482.00
2023-04-27T05:24:53.613Z,483.00
2023-04-27T05:25:53.879Z,481.00
2023-04-27T05:26:53.596Z,480.00
2023-04-27T05:27:53.556Z,480.00
2023-04-27T05:28:53.581Z,480.00
2023-04-27T05:29:53.566Z,482.00
2023-04-27T05:30:53.602Z,484.00
2023-04-27T05:31:53.654Z,483.00
2023-04-27T05:32:53.750Z,483.00
2023-04-27T05:33:53.749Z,480.00
2023-04-27T05:34:53.798Z,480.00
2023-04-27T05:35:53.818Z,485.00
2023-04-27T05:36:53.864Z,501.00
2023-04-27T05:37:53.922Z,575.00
2023-04-27T05:38:54.050Z,565.00
2023-04-27T05:39:54.053Z,568.00
2023-04-27T05:40:55.518Z,592.00
2023-04-27T05:41:54.206Z,688.00
2023-04-27T05:42:54.460Z,717.00
2023-04-27T05:43:54.266Z,764.00
2023-04-27T05:44:54.336Z,816.00
2023-04-27T05:45:54.387Z,865.00
2023-04-27T05:46:54.457Z,885.00
2023-04-27T05:47:54.474Z,907.00
2023-04-27T05:48:54.471Z,936.00
2023-04-27T05:49:54.524Z,965.00
2023-04-27T05:50:54.592Z,988.00
2023-04-27T05:51:54.592Z,1011.00
2023-04-27T05:52:55.402Z,1041.00
2023-04-27T05:53:54.682Z,1065.00
2023-04-27T05:54:54.694Z,1102.00
2023-04-27T05:55:54.678Z,1140.00
2023-04-27T05:56:54.685Z,1157.00
2023-04-27T05:58:06.931Z,1183.00
2023-04-27T05:58:55.735Z,1224.00
2023-04-27T05:59:54.682Z,1294.00
2023-04-27T06:00:54.726Z,1316.00
2023-04-27T06:01:54.754Z,1339.00
2023-04-27T06:02:54.754Z,1360.00
2023-04-27T06:03:54.687Z,1388.00
2023-04-27T06:04:54.692Z,1427.00
2023-04-27T06:05:56.234Z,1456.00
2023-04-27T06:06:54.625Z,1484.00
2023-04-27T06:07:54.620Z,1517.00
2023-04-27T06:08:54.637Z,1546.00
2023-04-27T06:09:54.613Z,1587.00
2023-04-27T06:10:54.667Z,1662.00
2023-04-27T06:11:54.767Z,1676.00
2023-04-27T06:12:54.719Z,1692.00
2023-04-27T06:13:54.689Z,1728.00
2023-04-27T06:14:55.379Z,1744.00
2023-04-27T06:15:54.672Z,1767.00
2023-04-27T06:16:54.684Z,1809.00
2023-04-27T06:17:54.612Z,1886.00
2023-04-27T06:18:54.552Z,1893.00
2023-04-27T06:19:55.391Z,1904.00
2023-04-27T06:20:54.546Z,1918.00
2023-04-27T06:21:54.620Z,1930.00
2023-04-27T06:22:54.604Z,1947.00
2023-04-27T06:23:54.518Z,1989.00
2023-04-27T06:24:54.525Z,2018.00
2023-04-27T06:25:54.508Z,2054.00
2023-04-27T06:26:54.513Z,2077.00
2023-04-27T06:27:54.494Z,2114.00
2023-04-27T06:28:54.481Z,2148.00
2023-04-27T06:29:54.561Z,2167.00
2023-04-27T06:30:54.500Z,2183.00
2023-04-27T06:31:54.503Z,2197.00
2023-04-27T06:32:54.497Z,2214.00
2023-04-27T06:33:54.464Z,2251.00
2023-04-27T06:34:54.459Z,2283.00
2023-04-27T06:35:54.923Z,2299.00
2023-04-27T06:36:54.424Z,2311.00
2023-04-27T06:37:54.426Z,2318.00
2023-04-27T06:38:54.450Z,2318.00
2023-04-27T06:39:54.420Z,2318.00
2023-04-27T06:40:54.405Z,2307.00
2023-04-27T06:41:54.405Z,2251.00
2023-04-27T06:42:54.892Z,2210.00
2023-04-27T06:43:55.804Z,2187.00
2023-04-27T06:44:54.520Z,2180.00
2023-04-27T06:45:54.657Z,2176.00
2023-04-27T06:46:54.650Z,2171.00
2023-04-27T06:47:54.773Z,2161.00
2023-04-27T06:48:54.761Z,2147.00
2023-04-27T06:49:54.834Z,2129.00
2023-04-27T06:50:54.926Z,2122.00
2023-04-27T06:51:54.971Z,2113.00
2023-04-27T06:52:55.029Z,2107.00
2023-04-27T06:53:55.076Z,2102.00
2023-04-27T06:54:55.132Z,2094.00
2023-04-27T06:55:55.180Z,2089.00
2023-04-27T06:56:55.244Z,2078.00
2023-04-27T06:57:55.293Z,2077.00
2023-04-27T06:58:55.272Z,2076.00
2023-04-27T06:59:55.290Z,2073.00
2023-04-27T07:00:55.291Z,2072.00
2023-04-27T07:01:55.418Z,2072.00
2023-04-27T07:02:55.367Z,2065.00
2023-04-27T07:03:55.501Z,2058.00
2023-04-27T07:04:55.387Z,2051.00
2023-04-27T07:05:55.326Z,2053.00
2023-04-27T07:06:55.315Z,2055.00
2023-04-27T07:07:55.309Z,2048.00
2023-04-27T07:08:55.414Z,2042.00
2023-04-27T07:09:55.299Z,2036.00
2023-04-27T07:10:55.306Z,2026.00
2023-04-27T07:11:55.356Z,2025.00
2023-04-27T07:12:55.339Z,2021.00
2023-04-27T07:13:55.647Z,2018.00
2023-04-27T07:14:55.278Z,2017.00
2023-04-27T07:15:55.335Z,2019.00
2023-04-27T07:16:55.282Z,2014.00
2023-04-27T07:17:55.420Z,2003.00
2023-04-27T07:18:55.306Z,1992.00
2023-04-27T07:19:55.318Z,1992.00
2023-04-27T07:20:55.326Z,1992.00
2023-04-27T07:21:55.318Z,1994.00
2023-04-27T07:22:55.341Z,1991.00
2023-04-27T07:23:56.193Z,1985.00
2023-04-27T07:24:55.329Z,1980.00
2023-04-27T07:25:55.426Z,1976.00
2023-04-27T07:26:55.323Z,1972.00
2023-04-27T07:27:55.391Z,1967.00
2023-04-27T07:28:55.351Z,1967.00
2023-04-27T07:29:55.353Z,1967.00
2023-04-27T07:30:55.407Z,1965.00
2023-04-27T07:31:55.389Z,1964.00
2023-04-27T07:32:55.405Z,1957.00
2023-04-27T07:33:55.447Z,1961.00
2023-04-27T07:34:55.426Z,1972.00
2023-04-27T07:35:55.456Z,1992.00
2023-04-27T07:36:55.446Z,2019.00
2023-04-27T07:37:55.405Z,2070.00
2023-04-27T07:38:55.415Z,1881.00
2023-04-27T07:39:55.393Z,1766.00
2023-04-27T07:40:55.430Z,1714.00
2023-04-27T07:41:55.416Z,1545.00
2023-04-27T07:42:55.456Z,1723.00
2023-04-27T07:43:55.515Z,1804.00
2023-04-27T07:44:55.469Z,1798.00
2023-04-27T07:45:55.941Z,1808.00
2023-04-27T07:46:55.480Z,1821.00
2023-04-27T07:47:56.970Z,1822.00
2023-04-27T07:48:55.923Z,1824.00
2023-04-27T07:49:55.470Z,1836.00
2023-04-27T07:50:55.965Z,1841.00
2023-04-27T07:51:55.467Z,1845.00
2023-04-27T07:52:55.433Z,1850.00
2023-04-27T07:53:55.430Z,1853.00
2023-04-27T07:54:55.406Z,1854.00
2023-04-27T07:55:55.437Z,1847.00
2023-04-27T07:56:55.474Z,1830.00
2023-04-27T07:57:55.410Z,1817.00
2023-04-27T07:58:55.960Z,1806.00
2023-04-27T07:59:55.463Z,1787.00
2023-04-27T08:00:55.373Z,1747.00
2023-04-27T08:02:04.112Z,1721.00
2023-04-27T08:02:56.756Z,1705.00
2023-04-27T08:03:56.159Z,1701.00
2023-04-27T08:04:55.677Z,1708.00
2023-04-27T08:05:55.735Z,1713.00
2023-04-27T08:06:55.833Z,1707.00
2023-04-27T08:07:55.392Z,1697.00
2023-04-27T08:08:55.341Z,1687.00
2023-04-27T08:09:55.310Z,1686.00
2023-04-27T08:10:55.291Z,1692.00
2023-04-27T08:11:55.291Z,1685.00
2023-04-27T08:12:55.330Z,1687.00
2023-04-27T08:13:55.387Z,1687.00
2023-04-27T08:14:55.428Z,1682.00
2023-04-27T08:15:55.491Z,1678.00
2023-04-27T08:16:55.610Z,1687.00
2023-04-27T08:17:55.632Z,1702.00
2023-04-27T08:18:55.703Z,1712.00
2023-04-27T08:19:55.672Z,1720.00
2023-04-27T08:20:55.730Z,1730.00
2023-04-27T08:21:55.779Z,1743.00
2023-04-27T08:22:55.812Z,1745.00
2023-04-27T08:23:55.920Z,1741.00
2023-04-27T08:24:55.895Z,1739.00
2023-04-27T08:25:55.968Z,1746.00
2023-04-27T08:26:55.959Z,1762.00
2023-04-27T08:27:56.038Z,1778.00
2023-04-27T08:28:56.053Z,1815.00
2023-04-27T08:29:56.098Z,1846.00
2023-04-27T08:30:56.510Z,1849.00
2023-04-27T08:31:56.856Z,1839.00
2023-04-27T08:32:56.292Z,1832.00
2023-04-27T08:33:56.278Z,1829.00
2023-04-27T08:34:56.313Z,1821.00
2023-04-27T08:35:56.503Z,1798.00
2023-04-27T08:36:56.446Z,1666.00
2023-04-27T08:37:56.507Z,1666.00
2023-04-27T08:38:56.568Z,1735.00
2023-04-27T08:39:56.556Z,1734.00
2023-04-27T08:40:57.219Z,1620.00
2023-04-27T08:41:56.550Z,1557.00
2023-04-27T08:42:56.555Z,1368.00
2023-04-27T08:43:57.964Z,1351.00
2023-04-27T08:44:56.553Z,1387.00
2023-04-27T08:45:56.593Z,1532.00
2023-04-27T08:46:56.579Z,1533.00
2023-04-27T08:47:56.658Z,1505.00
2023-04-27T08:48:56.667Z,1500.00
2023-04-27T08:49:56.598Z,1502.00
2023-04-27T08:50:56.664Z,1502.00
2023-04-27T08:51:56.491Z,1502.00
2023-04-27T08:52:56.491Z,1502.00
2023-04-27T08:53:56.681Z,1504.00
2023-04-27T08:54:56.610Z,1508.00
2023-04-27T08:55:56.481Z,1508.00
2023-04-27T08:56:56.636Z,1507.00
2023-04-27T08:57:56.449Z,1501.00
2023-04-27T08:58:56.622Z,1497.00
2023-04-27T08:59:56.484Z,1499.00
2023-04-27T09:00:56.533Z,1498.00
2023-04-27T09:01:56.446Z,1497.00
2023-04-27T09:02:56.708Z,1494.00
2023-04-27T09:03:56.736Z,1490.00
2023-04-27T09:04:56.662Z,1485.00
2023-04-27T09:06:03.453Z,1479.00
2023-04-27T09:06:57.386Z,1472.00
2023-04-27T09:07:56.413Z,1470.00
2023-04-27T09:08:56.420Z,1473.00
2023-04-27T09:09:56.421Z,1473.00
2023-04-27T09:10:56.484Z,1470.00
2023-04-27T09:11:56.356Z,1467.00
2023-04-27T09:12:56.419Z,1466.00
2023-04-27T09:13:56.346Z,1462.00
2023-04-27T09:14:56.365Z,1462.00
2023-04-27T09:15:56.430Z,1463.00
2023-04-27T09:16:56.612Z,1458.00
2023-04-27T09:17:56.630Z,1460.00
2023-04-27T09:18:56.645Z,1461.00
2023-04-27T09:19:56.644Z,1461.00
2023-04-27T09:20:56.698Z,1458.00
2023-04-27T09:21:56.768Z,1450.00
2023-04-27T09:22:56.809Z,1449.00
2023-04-27T09:23:56.867Z,1445.00
2023-04-27T09:24:56.931Z,1439.00
2023-04-27T09:25:56.973Z,1444.00
2023-04-27T09:26:59.002Z,1454.00
2023-04-27T09:27:57.024Z,1389.00
2023-04-27T09:28:57.051Z,1407.00
2023-04-27T09:29:57.028Z,1410.00
2023-04-27T09:30:57.022Z,1387.00
2023-04-27T09:31:57.028Z,1331.00
2023-04-27T09:32:57.093Z,1329.00
2023-04-27T09:33:57.033Z,1322.00
2023-04-27T09:34:56.990Z,1090.00
2023-04-27T09:35:56.993Z,1135.00
2023-04-27T09:36:56.983Z,1154.00
2023-04-27T09:37:56.950Z,1137.00
2023-04-27T09:38:56.960Z,1106.00
2023-04-27T09:39:56.962Z,1106.00
2023-04-27T09:40:56.958Z,1156.00
2023-04-27T09:41:56.958Z,1143.00
2023-04-27T09:42:57.083Z,1132.00
2023-04-27T09:43:57.931Z,1094.00
2023-04-27T09:44:57.134Z,1075.00
2023-04-27T09:45:56.964Z,1061.00
2023-04-27T09:46:56.907Z,1048.00
2023-04-27T09:47:56.917Z,1040.00
2023-04-27T09:48:56.937Z,1038.00
2023-04-27T09:49:56.885Z,1038.00
2023-04-27T09:50:56.884Z,1030.00
2023-04-27T09:51:56.936Z,1024.00
2023-04-27T09:52:56.868Z,1026.00
2023-04-27T09:53:56.901Z,1024.00
2023-04-27T09:54:56.845Z,1022.00
2023-04-27T09:55:56.839Z,1020.00
2023-04-27T09:56:56.839Z,1013.00
2023-04-27T09:57:56.861Z,1014.00
2023-04-27T09:58:58.800Z,1012.00
2023-04-27T09:59:56.839Z,1012.00
2023-04-27T10:00:56.915Z,1014.00
2023-04-27T10:01:56.827Z,1009.00
2023-04-27T10:02:57.633Z,1004.00
2023-04-27T10:03:56.884Z,1008.00
2023-04-27T10:04:56.886Z,1013.00
2023-04-27T10:05:56.771Z,1018.00
2023-04-27T10:06:57.806Z,1010.00
2023-04-27T10:07:56.750Z,1009.00
2023-04-27T10:08:56.764Z,1016.00
2023-04-27T10:09:56.768Z,1022.00
2023-04-27T10:10:56.741Z,1029.00
2023-04-27T10:11:56.744Z,1025.00
2023-04-27T10:12:56.770Z,1023.00
2023-04-27T10:13:56.839Z,1026.00
2023-04-27T10:14:56.918Z,1024.00
2023-04-27T10:15:56.968Z,1016.00
2023-04-27T10:16:57.142Z,1016.00
2023-04-27T10:17:57.139Z,1025.00
2023-04-27T10:18:57.201Z,1059.00
2023-04-27T10:19:58.248Z,1094.00
2023-04-27T10:20:57.287Z,1145.00
2023-04-27T10:21:57.342Z,1180.00
2023-04-27T10:22:57.363Z,1221.00
2023-04-27T10:23:57.453Z,1249.00
2023-04-27T10:24:57.458Z,1261.00
2023-04-27T10:25:57.517Z,1271.00
2023-04-27T10:26:57.549Z,1287.00
2023-04-27T10:27:57.630Z,1140.00
2023-04-27T10:28:57.640Z,1136.00
2023-04-27T10:29:57.710Z,1131.00
2023-04-27T10:30:57.774Z,1099.00
2023-04-27T10:31:57.810Z,1033.00
2023-04-27T10:32:57.933Z,1038.00
2023-04-27T10:33:57.992Z,1046.00
2023-04-27T10:34:58.000Z,1095.00
2023-04-27T10:35:58.173Z,1108.00
2023-04-27T10:36:58.172Z,1109.00
2023-04-27T10:37:58.187Z,1134.00
2023-04-27T10:38:58.234Z,1144.00
2023-04-27T10:39:58.306Z,1165.00
2023-04-27T10:40:58.361Z,1179.00
2023-04-27T10:41:58.500Z,1214.00
2023-04-27T10:42:58.479Z,1225.00
2023-04-27T10:43:58.549Z,1229.00
2023-04-27T10:44:58.558Z,1238.00
2023-04-27T10:45:58.596Z,1248.00
2023-04-27T10:46:58.641Z,1254.00
2023-04-27T10:47:58.737Z,1253.00
2023-04-27T10:48:58.780Z,1257.00
2023-04-27T10:49:58.782Z,1262.00
2023-04-27T10:50:58.815Z,1260.00
2023-04-27T10:51:58.902Z,1256.00
2023-04-27T10:53:00.859Z,1258.00
2023-04-27T10:53:58.940Z,1255.00
2023-04-27T10:54:58.970Z,1263.00
2023-04-27T10:55:59.030Z,1261.00
2023-04-27T10:56:59.143Z,1270.00
2023-04-27T10:57:59.116Z,1265.00
2023-04-27T10:58:59.133Z,1274.00
2023-04-27T10:59:59.299Z,1277.00
2023-04-27T11:00:59.192Z,1282.00
2023-04-27T11:01:59.327Z,1282.00
2023-04-27T11:02:59.362Z,1280.00
2023-04-27T11:03:59.296Z,1276.00
2023-04-27T11:04:59.367Z,1265.00
2023-04-27T11:05:59.396Z,1258.00
2023-04-27T11:06:59.490Z,1264.00
2023-04-27T11:07:59.457Z,1275.00
2023-04-27T11:08:59.556Z,1278.00
2023-04-27T11:09:59.578Z,1283.00
2023-04-27T11:10:59.693Z,1288.00
2023-04-27T11:11:59.683Z,1282.00
2023-04-27T11:12:59.633Z,1276.00
2023-04-27T11:13:59.674Z,1269.00
2023-04-27T11:14:59.792Z,1283.00
2023-04-27T11:15:59.789Z,1305.00
2023-04-27T11:16:59.866Z,1333.00
2023-04-27T11:17:59.817Z,1355.00
2023-04-27T11:18:59.881Z,1368.00
2023-04-27T11:19:59.830Z,1374.00
2023-04-27T11:20:59.879Z,1378.00
2023-04-27T11:22:00.043Z,1380.00
2023-04-27T11:22:59.928Z,1382.00
2023-04-27T11:23:59.953Z,1382.00
2023-04-27T11:25:00.026Z,1388.00
2023-04-27T11:25:59.947Z,1391.00
2023-04-27T11:27:00.041Z,1392.00
2023-04-27T11:28:00.012Z,1391.00
2023-04-27T11:29:00.051Z,1387.00
2023-04-27T11:30:00.566Z,1384.00
2023-04-27T11:31:01.092Z,1380.00
2023-04-27T11:32:00.579Z,1378.00
2023-04-27T11:33:00.207Z,1379.00
2023-04-27T11:34:00.227Z,1377.00
2023-04-27T11:35:00.278Z,1377.00
2023-04-27T11:36:00.243Z,1373.00
2023-04-27T11:37:10.776Z,1369.00
2023-04-27T11:38:01.280Z,1365.00
2023-04-27T11:39:00.343Z,1361.00
2023-04-27T11:40:00.291Z,1351.00
2023-04-27T11:41:00.281Z,1349.00
2023-04-27T11:42:00.256Z,1344.00
2023-04-27T11:43:00.268Z,1343.00
2023-04-27T11:44:00.264Z,1341.00
2023-04-27T11:45:00.243Z,1339.00
2023-04-27T11:46:00.300Z,1337.00
2023-04-27T11:47:00.311Z,1332.00
2023-04-27T11:48:00.244Z,1325.00
2023-04-27T11:49:00.192Z,1319.00
2023-04-27T11:50:00.251Z,1315.00
2023-04-27T11:51:00.193Z,1313.00
2023-04-27T11:52:00.305Z,1311.00
2023-04-27T11:53:00.175Z,1309.00
2023-04-27T11:54:00.231Z,1309.00
2023-04-27T11:55:00.230Z,1310.00
2023-04-27T11:56:00.235Z,1309.00
2023-04-27T11:57:00.307Z,1307.00
2023-04-27T11:58:00.318Z,1306.00
2023-04-27T11:59:00.377Z,1305.00
2023-04-27T12:00:00.620Z,1304.00
2023-04-27T12:01:00.451Z,1299.00
2023-04-27T12:02:00.536Z,1300.00
2023-04-27T12:03:00.621Z,1297.00
2023-04-27T12:04:02.340Z,1300.00
2023-04-27T12:05:00.888Z,1304.00
2023-04-27T12:06:16.198Z,1305.00
2023-04-27T12:07:01.669Z,1298.00
2023-04-27T12:08:00.662Z,1294.00
2023-04-27T12:09:00.624Z,1291.00
2023-04-27T12:10:01.016Z,1293.00
2023-04-27T12:11:00.624Z,1296.00
2023-04-27T12:12:00.632Z,1296.00
2023-04-27T12:13:00.612Z,1294.00
2023-04-27T12:14:00.620Z,1293.00
2023-04-27T12:15:00.661Z,1288.00
2023-04-27T12:16:01.087Z,1285.00
2023-04-27T12:17:00.601Z,1280.00